sensor_id;sensor_type;location;lat;lon;timestamp;pressure;altitude;pressure_sealevel;temperature;humidity
56176;BME280;63065;51.082;17.016;2023-04-02T00:01:50;99399.31;;;11.39;46.88
56176;BME280;63065;51.082;17.016;2023-04-02T00:04:18;99403.64;;;11.48;46.81
56176;BME280;63065;51.082;17.016;2023-04-02T00:06:42;99409.74;;;11.89;46.30
56176;BME280;63065;51.082;17.016;2023-04-02T00:09:16;99411.32;;;11.86;45.70
56176;BME280;63065;51.082;17.016;2023-04-02T00:11:34;99415.68;;;11.51;46.08
56176;BME280;63065;51.082;17.016;2023-04-02T00:14:00;99418.30;;;11.85;45.99
56176;BME280;63065;51.082;17.016;2023-04-02T00:16:23;99424.40;;;11.84;45.96
56176;BME280;63065;51.082;17.016;2023-04-02T00:18:52;99427.00;;;11.96;45.09
56176;BME280;63065;51.082;17.016;2023-04-02T00:21:19;99432.90;;;10.98;45.89
56176;BME280;63065;51.082;17.016;2023-04-02T00:23:40;99433.82;;;11.45;45.60
56176;BME280;63065;51.082;17.016;2023-04-02T00:26:07;99440.73;;;11.16;46.74
56176;BME280;63065;51.082;17.016;2023-04-02T00:28:31;99447.58;;;11.51;45.06
56176;BME280;63065;51.082;17.016;2023-04-02T00:30:58;99455.97;;;11.53;45.53
56176;BME280;63065;51.082;17.016;2023-04-02T00:33:23;99457.42;;;11.52;45.63
56176;BME280;63065;51.082;17.016;2023-04-02T00:35:47;99455.16;;;11.77;45.28
56176;BME280;63065;51.082;17.016;2023-04-02T00:38:21;99458.59;;;11.69;45.68
56176;BME280;63065;51.082;17.016;2023-04-02T00:40:38;99464.61;;;12.03;44.58
56176;BME280;63065;51.082;17.016;2023-04-02T00:43:05;99466.01;;;11.50;45.03
56176;BME280;63065;51.082;17.016;2023-04-02T00:45:32;99466.35;;;11.40;44.78
56176;BME280;63065;51.082;17.016;2023-04-02T00:47:58;99471.84;;;11.13;45.86
56176;BME280;63065;51.082;17.016;2023-04-02T00:52:47;99479.14;;;10.88;45.00
56176;BME280;63065;51.082;17.016;2023-04-02T00:55:14;99481.62;;;10.67;45.90
56176;BME280;63065;51.082;17.016;2023-04-02T00:57:35;99483.49;;;10.41;47.62
56176;BME280;63065;51.082;17.016;2023-04-02T01:00:13;99485.33;;;10.09;47.74
56176;BME280;63065;51.082;17.016;2023-04-02T01:02:29;99487.52;;;10.23;48.27
56176;BME280;63065;51.082;17.016;2023-04-02T01:04:54;99486.15;;;10.59;47.13
56176;BME280;63065;51.082;17.016;2023-04-02T01:07:17;99491.92;;;9.94;48.88
56176;BME280;63065;51.082;17.016;2023-04-02T01:09:58;99491.25;;;10.16;48.09
56176;BME280;63065;51.082;17.016;2023-04-02T01:14:43;99499.87;;;9.76;48.26
56176;BME280;63065;51.082;17.016;2023-04-02T01:17:05;99499.76;;;10.27;47.51
56176;BME280;63065;51.082;17.016;2023-04-02T01:21:56;99508.28;;;10.29;47.38
56176;BME280;63065;51.082;17.016;2023-04-02T01:24:17;99510.60;;;10.17;47.02
56176;BME280;63065;51.082;17.016;2023-04-02T01:26:49;99513.54;;;9.58;47.28
56176;BME280;63065;51.082;17.016;2023-04-02T01:29:11;99520.57;;;9.78;47.60
56176;BME280;63065;51.082;17.016;2023-04-02T01:31:34;99521.14;;;9.61;47.73
56176;BME280;63065;51.082;17.016;2023-04-02T01:33:58;99525.59;;;9.95;47.11
56176;BME280;63065;51.082;17.016;2023-04-02T01:36:28;99528.38;;;10.10;47.06
56176;BME280;63065;51.082;17.016;2023-04-02T01:38:55;99535.46;;;10.16;45.98
56176;BME280;63065;51.082;17.016;2023-04-02T01:41:20;99540.19;;;9.34;48.35
56176;BME280;63065;51.082;17.016;2023-04-02T01:43:45;99540.42;;;9.70;48.39
56176;BME280;63065;51.082;17.016;2023-04-02T01:48:30;99547.96;;;9.30;47.61
56176;BME280;63065;51.082;17.016;2023-04-02T01:50:57;99550.50;;;9.73;48.55
56176;BME280;63065;51.082;17.016;2023-04-02T01:53:23;99547.39;;;10.03;47.38
56176;BME280;63065;51.082;17.016;2023-04-02T01:55:49;99550.91;;;10.26;46.73
56176;BME280;63065;51.082;17.016;2023-04-02T01:58:13;99550.36;;;9.99;47.06
56176;BME280;63065;51.082;17.016;2023-04-02T02:00:43;99552.34;;;9.98;47.01
56176;BME280;63065;51.082;17.016;2023-04-02T02:03:04;99553.70;;;9.71;47.21
56176;BME280;63065;51.082;17.016;2023-04-02T02:05:28;99556.89;;;9.86;47.14
56176;BME280;63065;51.082;17.016;2023-04-02T02:07:55;99558.57;;;9.99;47.31
56176;BME280;63065;51.082;17.016;2023-04-02T02:10:23;99565.73;;;9.55;46.83
56176;BME280;63065;51.082;17.016;2023-04-02T02:12:46;99572.06;;;9.74;47.08
56176;BME280;63065;51.082;17.016;2023-04-02T02:15:14;99573.84;;;9.90;46.69
56176;BME280;63065;51.082;17.016;2023-04-02T02:17:35;99579.37;;;9.87;46.45
56176;BME280;63065;51.082;17.016;2023-04-02T02:20:02;99581.25;;;9.98;46.45
56176;BME280;63065;51.082;17.016;2023-04-02T02:22:29;99585.68;;;9.72;47.03
56176;BME280;63065;51.082;17.016;2023-04-02T02:24:52;99592.26;;;9.62;46.14
56176;BME280;63065;51.082;17.016;2023-04-02T02:29:44;99595.41;;;9.24;47.84
56176;BME280;63065;51.082;17.016;2023-04-02T02:32:09;99600.15;;;9.29;47.07
56176;BME280;63065;51.082;17.016;2023-04-02T02:34:38;99607.65;;;9.72;46.86
56176;BME280;63065;51.082;17.016;2023-04-02T02:37:02;99613.45;;;9.39;47.67
56176;BME280;63065;51.082;17.016;2023-04-02T02:39:30;99614.73;;;9.49;46.49
56176;BME280;63065;51.082;17.016;2023-04-02T02:41:52;99617.86;;;9.53;46.98
56176;BME280;63065;51.082;17.016;2023-04-02T02:44:18;99623.13;;;9.79;46.96
56176;BME280;63065;51.082;17.016;2023-04-02T02:46:43;99629.35;;;9.50;46.10
56176;BME280;63065;51.082;17.016;2023-04-02T02:49:06;99632.76;;;9.68;46.90
56176;BME280;63065;51.082;17.016;2023-04-02T02:51:38;99631.21;;;9.67;46.60
56176;BME280;63065;51.082;17.016;2023-04-02T02:54:00;99638.84;;;9.36;46.43
56176;BME280;63065;51.082;17.016;2023-04-02T02:56:22;99644.72;;;9.65;46.51
56176;BME280;63065;51.082;17.016;2023-04-02T02:58:48;99650.63;;;9.58;46.66
56176;BME280;63065;51.082;17.016;2023-04-02T03:01:13;99649.73;;;9.59;47.19
56176;BME280;63065;51.082;17.016;2023-04-02T03:03:38;99657.39;;;9.42;47.14
56176;BME280;63065;51.082;17.016;2023-04-02T03:06:06;99661.78;;;9.47;46.71
56176;BME280;63065;51.082;17.016;2023-04-02T03:08:32;99666.45;;;9.63;45.88
56176;BME280;63065;51.082;17.016;2023-04-02T03:10:59;99668.72;;;9.63;46.17
56176;BME280;63065;51.082;17.016;2023-04-02T03:13:23;99674.79;;;9.40;46.59
56176;BME280;63065;51.082;17.016;2023-04-02T03:15:53;99680.08;;;9.36;45.73
56176;BME280;63065;51.082;17.016;2023-04-02T03:18:13;99684.23;;;9.33;45.86
56176;BME280;63065;51.082;17.016;2023-04-02T03:20:38;99690.62;;;9.03;47.23
56176;BME280;63065;51.082;17.016;2023-04-02T03:23:04;99694.63;;;8.50;46.98
56176;BME280;63065;51.082;17.016;2023-04-02T03:25:33;99703.14;;;8.28;46.72
56176;BME280;63065;51.082;17.016;2023-04-02T03:27:56;99706.10;;;8.65;46.57
56176;BME280;63065;51.082;17.016;2023-04-02T03:30:27;99712.18;;;8.45;47.62
56176;BME280;63065;51.082;17.016;2023-04-02T03:32:43;99717.93;;;8.31;47.31
56176;BME280;63065;51.082;17.016;2023-04-02T03:35:17;99721.19;;;8.21;46.42
56176;BME280;63065;51.082;17.016;2023-04-02T03:37:39;99723.93;;;8.09;47.92
56176;BME280;63065;51.082;17.016;2023-04-02T03:40:03;99724.15;;;8.72;46.30
56176;BME280;63065;51.082;17.016;2023-04-02T03:42:25;99735.69;;;8.63;46.73
56176;BME280;63065;51.082;17.016;2023-04-02T03:44:55;99739.07;;;8.46;46.97
56176;BME280;63065;51.082;17.016;2023-04-02T03:47:22;99741.36;;;8.37;46.35
56176;BME280;63065;51.082;17.016;2023-04-02T03:49:46;99746.74;;;8.45;46.32
56176;BME280;63065;51.082;17.016;2023-04-02T03:52:10;99753.16;;;7.99;46.87
56176;BME280;63065;51.082;17.016;2023-04-02T03:54:32;99755.17;;;8.27;47.29
56176;BME280;63065;51.082;17.016;2023-04-02T03:56:57;99759.58;;;8.16;46.71
56176;BME280;63065;51.082;17.016;2023-04-02T03:59:29;99763.56;;;8.64;46.61
56176;BME280;63065;51.082;17.016;2023-04-02T04:01:52;99769.26;;;8.57;46.16
56176;BME280;63065;51.082;17.016;2023-04-02T04:04:16;99775.96;;;8.15;46.02
56176;BME280;63065;51.082;17.016;2023-04-02T04:06:41;99781.22;;;8.03;48.26
56176;BME280;63065;51.082;17.016;2023-04-02T04:09:08;99786.89;;;8.46;47.25
56176;BME280;63065;51.082;17.016;2023-04-02T04:11:31;99788.23;;;8.03;47.24
56176;BME280;63065;51.082;17.016;2023-04-02T04:13:58;99795.61;;;7.63;47.39
56176;BME280;63065;51.082;17.016;2023-04-02T04:16:23;99800.90;;;7.72;47.35
56176;BME280;63065;51.082;17.016;2023-04-02T04:18:50;99799.68;;;7.88;47.71
56176;BME280;63065;51.082;17.016;2023-04-02T04:21:15;99803.60;;;7.91;47.17
56176;BME280;63065;51.082;17.016;2023-04-02T04:23:38;99808.74;;;7.38;48.02
56176;BME280;63065;51.082;17.016;2023-04-02T04:26:05;99811.77;;;7.46;48.38
56176;BME280;63065;51.082;17.016;2023-04-02T04:28:33;99819.58;;;7.68;48.16
56176;BME280;63065;51.082;17.016;2023-04-02T04:30:57;99827.36;;;7.97;48.00
56176;BME280;63065;51.082;17.016;2023-04-02T04:33:22;99834.08;;;8.07;46.85
56176;BME280;63065;51.082;17.016;2023-04-02T04:35:47;99834.49;;;7.82;47.25
56176;BME280;63065;51.082;17.016;2023-04-02T04:38:13;99838.80;;;8.18;46.49
56176;BME280;63065;51.082;17.016;2023-04-02T04:40:40;99843.27;;;8.27;47.57
56176;BME280;63065;51.082;17.016;2023-04-02T04:43:03;99850.61;;;7.86;46.95
56176;BME280;63065;51.082;17.016;2023-04-02T04:45:35;99854.37;;;7.36;48.14
56176;BME280;63065;51.082;17.016;2023-04-02T04:47:54;99855.89;;;8.15;47.54
56176;BME280;63065;51.082;17.016;2023-04-02T04:50:24;99861.29;;;8.04;47.53
56176;BME280;63065;51.082;17.016;2023-04-02T04:52:42;99860.90;;;7.71;47.11
56176;BME280;63065;51.082;17.016;2023-04-02T04:57:36;99869.24;;;7.60;48.18
56176;BME280;63065;51.082;17.016;2023-04-02T05:00:04;99875.57;;;7.69;47.42
56176;BME280;63065;51.082;17.016;2023-04-02T05:02:29;99882.24;;;7.55;48.19
56176;BME280;63065;51.082;17.016;2023-04-02T05:04:51;99883.50;;;7.49;48.80
56176;BME280;63065;51.082;17.016;2023-04-02T05:07:19;99889.56;;;7.85;48.68
56176;BME280;63065;51.082;17.016;2023-04-02T05:09:44;99893.36;;;7.71;48.52
56176;BME280;63065;51.082;17.016;2023-04-02T05:12:13;99899.00;;;8.11;47.57
56176;BME280;63065;51.082;17.016;2023-04-02T05:14:36;99901.26;;;8.18;47.29
56176;BME280;63065;51.082;17.016;2023-04-02T05:17:00;99907.88;;;8.35;47.39
56176;BME280;63065;51.082;17.016;2023-04-02T05:19:27;99909.43;;;8.18;46.93
56176;BME280;63065;51.082;17.016;2023-04-02T05:21:50;99913.31;;;8.31;47.05
56176;BME280;63065;51.082;17.016;2023-04-02T05:26:40;99918.95;;;8.30;46.42
56176;BME280;63065;51.082;17.016;2023-04-02T05:29:08;99923.00;;;8.40;47.96
56176;BME280;63065;51.082;17.016;2023-04-02T05:31:36;99931.13;;;8.71;46.70
56176;BME280;63065;51.082;17.016;2023-04-02T05:33:56;99931.00;;;8.25;46.78
56176;BME280;63065;51.082;17.016;2023-04-02T05:36:23;99932.59;;;8.14;46.96
56176;BME280;63065;51.082;17.016;2023-04-02T05:38:47;99933.92;;;8.25;45.85
56176;BME280;63065;51.082;17.016;2023-04-02T05:41:20;99939.51;;;7.98;46.76
56176;BME280;63065;51.082;17.016;2023-04-02T05:43:37;99944.04;;;8.08;47.07
56176;BME280;63065;51.082;17.016;2023-04-02T05:46:06;99950.67;;;7.97;46.93
56176;BME280;63065;51.082;17.016;2023-04-02T05:48:31;99951.76;;;7.92;47.48
56176;BME280;63065;51.082;17.016;2023-04-02T05:50:55;99955.98;;;7.66;47.70
56176;BME280;63065;51.082;17.016;2023-04-02T05:53:20;99954.32;;;7.84;47.96
56176;BME280;63065;51.082;17.016;2023-04-02T05:55:50;99957.48;;;7.34;48.48
56176;BME280;63065;51.082;17.016;2023-04-02T05:58:16;99961.25;;;7.63;47.96
56176;BME280;63065;51.082;17.016;2023-04-02T06:00:48;99963.66;;;8.12;47.91
56176;BME280;63065;51.082;17.016;2023-04-02T06:03:05;99972.39;;;8.07;47.03
56176;BME280;63065;51.082;17.016;2023-04-02T06:05:31;99970.55;;;7.82;46.05
56176;BME280;63065;51.082;17.016;2023-04-02T06:07:56;99975.57;;;7.98;47.23
56176;BME280;63065;51.082;17.016;2023-04-02T06:10:23;99975.89;;;8.52;46.66
56176;BME280;63065;51.082;17.016;2023-04-02T06:12:45;99975.09;;;7.97;47.35
56176;BME280;63065;51.082;17.016;2023-04-02T06:15:12;99988.45;;;7.84;47.16
56176;BME280;63065;51.082;17.016;2023-04-02T06:17:42;99992.00;;;7.76;46.13
56176;BME280;63065;51.082;17.016;2023-04-02T06:19:58;99994.65;;;8.10;47.57
56176;BME280;63065;51.082;17.016;2023-04-02T06:22:30;99997.96;;;8.43;47.51
56176;BME280;63065;51.082;17.016;2023-04-02T06:24:53;100002.26;;;8.25;46.77
56176;BME280;63065;51.082;17.016;2023-04-02T06:27:16;100006.58;;;8.64;45.07
56176;BME280;63065;51.082;17.016;2023-04-02T06:29:41;100011.90;;;8.32;46.07
56176;BME280;63065;51.082;17.016;2023-04-02T06:32:06;100016.66;;;8.38;45.84
56176;BME280;63065;51.082;17.016;2023-04-02T06:34:31;100021.00;;;8.36;46.04
56176;BME280;63065;51.082;17.016;2023-04-02T06:36:58;100026.30;;;8.19;46.04
56176;BME280;63065;51.082;17.016;2023-04-02T06:39:23;100027.70;;;8.09;46.65
56176;BME280;63065;51.082;17.016;2023-04-02T06:41:54;100030.25;;;8.23;47.08
56176;BME280;63065;51.082;17.016;2023-04-02T06:44:15;100036.38;;;8.05;45.27
56176;BME280;63065;51.082;17.016;2023-04-02T06:46:40;100039.96;;;8.06;45.91
56176;BME280;63065;51.082;17.016;2023-04-02T06:49:11;100048.75;;;7.77;46.32
56176;BME280;63065;51.082;17.016;2023-04-02T06:51:29;100049.11;;;8.29;46.60
56176;BME280;63065;51.082;17.016;2023-04-02T06:53:53;100060.04;;;8.25;46.32
56176;BME280;63065;51.082;17.016;2023-04-02T06:56:26;100056.98;;;8.25;45.77
56176;BME280;63065;51.082;17.016;2023-04-02T06:58:44;100066.25;;;7.93;45.83
56176;BME280;63065;51.082;17.016;2023-04-02T07:01:13;100066.47;;;6.85;46.44
56176;BME280;63065;51.082;17.016;2023-04-02T07:03:35;100069.90;;;6.71;47.59
56176;BME280;63065;51.082;17.016;2023-04-02T07:06:02;100078.88;;;7.50;46.71
56176;BME280;63065;51.082;17.016;2023-04-02T07:08:26;100071.75;;;8.08;46.34
56176;BME280;63065;51.082;17.016;2023-04-02T07:10:52;100078.53;;;8.19;45.96
56176;BME280;63065;51.082;17.016;2023-04-02T07:13:20;100085.44;;;7.94;46.25
56176;BME280;63065;51.082;17.016;2023-04-02T07:15:44;100085.99;;;8.14;45.13
56176;BME280;63065;51.082;17.016;2023-04-02T07:18:16;100091.89;;;8.17;44.57
56176;BME280;63065;51.082;17.016;2023-04-02T07:20:35;100090.67;;;7.79;45.06
56176;BME280;63065;51.082;17.016;2023-04-02T07:23:00;100090.69;;;7.83;45.06
56176;BME280;63065;51.082;17.016;2023-04-02T07:25:26;100096.29;;;8.30;45.11
56176;BME280;63065;51.082;17.016;2023-04-02T07:27:51;100101.93;;;8.47;45.53
56176;BME280;63065;51.082;17.016;2023-04-02T07:30:17;100108.35;;;8.77;44.87
56176;BME280;63065;51.082;17.016;2023-04-02T07:32:40;100113.40;;;8.49;44.11
56176;BME280;63065;51.082;17.016;2023-04-02T07:35:07;100114.58;;;8.54;44.10
56176;BME280;63065;51.082;17.016;2023-04-02T07:37:31;100120.42;;;8.37;43.85
56176;BME280;63065;51.082;17.016;2023-04-02T07:39:56;100119.12;;;8.18;44.88
56176;BME280;63065;51.082;17.016;2023-04-02T07:42:21;100122.65;;;8.30;45.00
56176;BME280;63065;51.082;17.016;2023-04-02T07:44:47;100125.66;;;8.19;45.64
56176;BME280;63065;51.082;17.016;2023-04-02T07:47:12;100133.73;;;7.97;44.83
56176;BME280;63065;51.082;17.016;2023-04-02T07:49:38;100138.98;;;7.77;45.95
56176;BME280;63065;51.082;17.016;2023-04-02T07:52:04;100143.26;;;7.66;45.75
56176;BME280;63065;51.082;17.016;2023-04-02T07:54:29;100145.96;;;7.04;45.64
56176;BME280;63065;51.082;17.016;2023-04-02T07:56:55;100148.72;;;7.52;46.40
56176;BME280;63065;51.082;17.016;2023-04-02T07:59:20;100156.01;;;7.48;46.67
56176;BME280;63065;51.082;17.016;2023-04-02T08:01:45;100163.52;;;8.07;45.51
56176;BME280;63065;51.082;17.016;2023-04-02T08:04:16;100168.74;;;8.10;45.77
56176;BME280;63065;51.082;17.016;2023-04-02T08:06:36;100175.02;;;8.14;44.74
56176;BME280;63065;51.082;17.016;2023-04-02T08:09:02;100179.41;;;7.64;45.26
56176;BME280;63065;51.082;17.016;2023-04-02T08:11:27;100178.28;;;7.30;46.24
56176;BME280;63065;51.082;17.016;2023-04-02T08:13:52;100188.05;;;7.23;46.10
56176;BME280;63065;51.082;17.016;2023-04-02T08:16:18;100190.22;;;7.33;47.24
56176;BME280;63065;51.082;17.016;2023-04-02T08:18:43;100193.75;;;7.65;45.09
56176;BME280;63065;51.082;17.016;2023-04-02T08:21:10;100197.04;;;8.44;44.87
56176;BME280;63065;51.082;17.016;2023-04-02T08:23:35;100198.58;;;8.26;45.32
56176;BME280;63065;51.082;17.016;2023-04-02T08:26:00;100202.30;;;7.72;44.97
56176;BME280;63065;51.082;17.016;2023-04-02T08:28:26;100208.00;;;7.32;45.86
56176;BME280;63065;51.082;17.016;2023-04-02T08:30:51;100215.36;;;7.53;45.41
56176;BME280;63065;51.082;17.016;2023-04-02T08:33:17;100219.82;;;7.17;47.13
56176;BME280;63065;51.082;17.016;2023-04-02T08:35:42;100228.46;;;7.22;46.57
56176;BME280;63065;51.082;17.016;2023-04-02T08:38:10;100225.08;;;7.91;46.48
56176;BME280;63065;51.082;17.016;2023-04-02T08:40:35;100223.30;;;8.05;45.16
56176;BME280;63065;51.082;17.016;2023-04-02T08:45:32;100229.40;;;8.55;44.47
56176;BME280;63065;51.082;17.016;2023-04-02T08:47:49;100226.48;;;8.48;43.05
56176;BME280;63065;51.082;17.016;2023-04-02T08:50:22;100229.78;;;8.53;44.43
56176;BME280;63065;51.082;17.016;2023-04-02T08:52:41;100234.22;;;8.50;42.86
56176;BME280;63065;51.082;17.016;2023-04-02T08:55:17;100232.78;;;8.20;44.08
56176;BME280;63065;51.082;17.016;2023-04-02T08:57:37;100235.01;;;7.90;43.22
56176;BME280;63065;51.082;17.016;2023-04-02T09:00:00;100237.05;;;8.00;44.84
56176;BME280;63065;51.082;17.016;2023-04-02T09:02:28;100244.18;;;8.29;44.79
56176;BME280;63065;51.082;17.016;2023-04-02T09:04:49;100247.79;;;8.39;42.40
56176;BME280;63065;51.082;17.016;2023-04-02T09:07:15;100248.85;;;8.04;45.09
56176;BME280;63065;51.082;17.016;2023-04-02T09:09:39;100249.79;;;8.02;42.93
56176;BME280;63065;51.082;17.016;2023-04-02T09:12:13;100251.12;;;8.60;43.21
56176;BME280;63065;51.082;17.016;2023-04-02T09:14:38;100251.83;;;8.61;44.33
56176;BME280;63065;51.082;17.016;2023-04-02T09:17:00;100255.28;;;8.81;44.57
56176;BME280;63065;51.082;17.016;2023-04-02T09:19:28;100251.74;;;8.54;43.62
56176;BME280;63065;51.082;17.016;2023-04-02T09:21:59;100259.75;;;8.62;43.81
56176;BME280;63065;51.082;17.016;2023-04-02T09:24:12;100260.67;;;8.20;44.47
56176;BME280;63065;51.082;17.016;2023-04-02T09:26:38;100265.60;;;8.28;43.86
56176;BME280;63065;51.082;17.016;2023-04-02T09:29:18;100267.60;;;8.70;43.04
56176;BME280;63065;51.082;17.016;2023-04-02T09:31:33;100266.24;;;8.23;45.03
56176;BME280;63065;51.082;17.016;2023-04-02T09:33:54;100270.57;;;8.23;42.87
56176;BME280;63065;51.082;17.016;2023-04-02T09:36:26;100276.88;;;8.22;43.14
56176;BME280;63065;51.082;17.016;2023-04-02T09:41:18;100284.94;;;8.79;43.99
56176;BME280;63065;51.082;17.016;2023-04-02T09:43:37;100288.29;;;8.26;42.85
56176;BME280;63065;51.082;17.016;2023-04-02T09:46:04;100297.94;;;8.36;42.92
56176;BME280;63065;51.082;17.016;2023-04-02T09:48:28;100301.68;;;8.59;42.14
56176;BME280;63065;51.082;17.016;2023-04-02T09:53:25;100310.62;;;7.69;43.77
56176;BME280;63065;51.082;17.016;2023-04-02T09:55:43;100315.48;;;8.06;44.23
56176;BME280;63065;51.082;17.016;2023-04-02T09:58:14;100320.77;;;7.40;44.00
56176;BME280;63065;51.082;17.016;2023-04-02T10:00:34;100317.57;;;8.05;43.37
56176;BME280;63065;51.082;17.016;2023-04-02T10:03:03;100330.31;;;7.90;43.36
56176;BME280;63065;51.082;17.016;2023-04-02T10:05:25;100333.35;;;7.81;43.64
56176;BME280;63065;51.082;17.016;2023-04-02T10:07:52;100336.65;;;8.02;43.28
56176;BME280;63065;51.082;17.016;2023-04-02T10:10:20;100334.64;;;8.16;44.75
56176;BME280;63065;51.082;17.016;2023-04-02T10:12:46;100338.98;;;8.20;43.64
56176;BME280;63065;51.082;17.016;2023-04-02T10:15:13;100339.59;;;8.90;42.85
56176;BME280;63065;51.082;17.016;2023-04-02T10:17:35;100345.03;;;8.93;40.45
56176;BME280;63065;51.082;17.016;2023-04-02T10:20:00;100348.68;;;8.18;42.06
56176;BME280;63065;51.082;17.016;2023-04-02T10:22:22;100344.91;;;8.88;42.47
56176;BME280;63065;51.082;17.016;2023-04-02T10:24:48;100353.46;;;8.35;41.72
56176;BME280;63065;51.082;17.016;2023-04-02T10:27:20;100358.32;;;8.57;42.59
56176;BME280;63065;51.082;17.016;2023-04-02T10:29:49;100358.02;;;9.19;41.01
56176;BME280;63065;51.082;17.016;2023-04-02T10:32:07;100359.35;;;8.66;43.12
56176;BME280;63065;51.082;17.016;2023-04-02T10:34:34;100362.59;;;8.61;41.86
56176;BME280;63065;51.082;17.016;2023-04-02T10:36:56;100362.99;;;9.19;41.92
56176;BME280;63065;51.082;17.016;2023-04-02T10:39:21;100362.40;;;8.96;42.64
56176;BME280;63065;51.082;17.016;2023-04-02T10:41:48;100367.61;;;9.26;41.06
56176;BME280;63065;51.082;17.016;2023-04-02T10:44:17;100365.69;;;9.48;40.01
56176;BME280;63065;51.082;17.016;2023-04-02T10:46:40;100368.27;;;8.67;40.86
56176;BME280;63065;51.082;17.016;2023-04-02T10:49:08;100374.63;;;8.81;41.91
56176;BME280;63065;51.082;17.016;2023-04-02T10:51:33;100379.33;;;7.78;43.04
56176;BME280;63065;51.082;17.016;2023-04-02T10:53:56;100377.72;;;8.11;43.45
56176;BME280;63065;51.082;17.016;2023-04-02T10:56:17;100383.22;;;8.25;41.97
56176;BME280;63065;51.082;17.016;2023-04-02T10:58:50;100385.90;;;8.46;43.07
56176;BME280;63065;51.082;17.016;2023-04-02T11:01:10;100384.60;;;8.87;41.85
56176;BME280;63065;51.082;17.016;2023-04-02T11:03:35;100386.56;;;9.15;43.24
56176;BME280;63065;51.082;17.016;2023-04-02T11:05:59;100389.15;;;8.64;42.27
56176;BME280;63065;51.082;17.016;2023-04-02T11:08:25;100393.10;;;8.80;43.37
56176;BME280;63065;51.082;17.016;2023-04-02T11:10:54;100396.31;;;8.58;42.00
56176;BME280;63065;51.082;17.016;2023-04-02T11:13:19;100399.79;;;9.03;39.98
56176;BME280;63065;51.082;17.016;2023-04-02T11:15:39;100402.74;;;9.02;41.92
56176;BME280;63065;51.082;17.016;2023-04-02T11:18:05;100412.67;;;8.76;41.08
56176;BME280;63065;51.082;17.016;2023-04-02T11:25:21;100424.06;;;8.45;41.04
56176;BME280;63065;51.082;17.016;2023-04-02T11:27:45;100423.17;;;8.14;42.61
56176;BME280;63065;51.082;17.016;2023-04-02T11:30:18;100426.15;;;8.23;42.15
56176;BME280;63065;51.082;17.016;2023-04-02T11:32:37;100429.34;;;8.11;44.33
56176;BME280;63065;51.082;17.016;2023-04-02T11:37:33;100437.21;;;7.66;43.19
56176;BME280;63065;51.082;17.016;2023-04-02T11:39:53;100435.82;;;7.71;43.30
56176;BME280;63065;51.082;17.016;2023-04-02T11:42:25;100443.07;;;7.48;43.29
56176;BME280;63065;51.082;17.016;2023-04-02T11:44:43;100443.76;;;7.91;43.01
56176;BME280;63065;51.082;17.016;2023-04-02T11:47:13;100447.72;;;8.06;42.11
56176;BME280;63065;51.082;17.016;2023-04-02T11:49:38;100448.44;;;8.10;42.23
56176;BME280;63065;51.082;17.016;2023-04-02T11:51:59;100451.12;;;8.87;42.15
56176;BME280;63065;51.082;17.016;2023-04-02T11:54:28;100460.08;;;8.56;42.77
56176;BME280;63065;51.082;17.016;2023-04-02T11:56:53;100462.96;;;7.86;41.20
56176;BME280;63065;51.082;17.016;2023-04-02T11:59:18;100462.76;;;8.87;41.05
56176;BME280;63065;51.082;17.016;2023-04-02T12:06:39;100481.84;;;8.10;42.54
56176;BME280;63065;51.082;17.016;2023-04-02T12:09:02;100485.79;;;8.26;42.58
56176;BME280;63065;51.082;17.016;2023-04-02T12:11:29;100484.73;;;8.72;41.66
56176;BME280;63065;51.082;17.016;2023-04-02T12:13:49;100487.27;;;8.31;43.13
56176;BME280;63065;51.082;17.016;2023-04-02T12:16:12;100489.74;;;8.86;41.77
56176;BME280;63065;51.082;17.016;2023-04-02T12:18:42;100494.44;;;9.05;39.88
56176;BME280;63065;51.082;17.016;2023-04-02T12:21:03;100498.32;;;8.75;42.05
56176;BME280;63065;51.082;17.016;2023-04-02T12:23:29;100498.65;;;8.64;41.70
56176;BME280;63065;51.082;17.016;2023-04-02T12:25:56;100498.71;;;8.94;41.99
56176;BME280;63065;51.082;17.016;2023-04-02T12:28:18;100500.36;;;9.05;40.97
56176;BME280;63065;51.082;17.016;2023-04-02T12:30:45;100498.50;;;9.02;41.10
56176;BME280;63065;51.082;17.016;2023-04-02T12:33:15;100498.42;;;9.13;41.27
56176;BME280;63065;51.082;17.016;2023-04-02T12:35:35;100504.74;;;8.82;41.36
56176;BME280;63065;51.082;17.016;2023-04-02T12:38:00;100504.22;;;8.73;41.91
56176;BME280;63065;51.082;17.016;2023-04-02T12:40:26;100505.66;;;9.04;41.02
56176;BME280;63065;51.082;17.016;2023-04-02T12:42:51;100503.43;;;9.16;39.56
56176;BME280;63065;51.082;17.016;2023-04-02T12:45:22;100505.89;;;8.88;41.63
56176;BME280;63065;51.082;17.016;2023-04-02T12:47:43;100507.80;;;8.89;41.28
56176;BME280;63065;51.082;17.016;2023-04-02T12:50:13;100505.63;;;9.28;39.16
56176;BME280;63065;51.082;17.016;2023-04-02T12:52:33;100511.04;;;9.15;40.23
56176;BME280;63065;51.082;17.016;2023-04-02T12:55:00;100509.33;;;9.44;41.41
56176;BME280;63065;51.082;17.016;2023-04-02T12:59:49;100513.74;;;9.62;40.86
56176;BME280;63065;51.082;17.016;2023-04-02T13:02:18;100517.10;;;9.69;38.42
56176;BME280;63065;51.082;17.016;2023-04-02T13:04:46;100519.81;;;9.46;39.12
56176;BME280;63065;51.082;17.016;2023-04-02T13:07:05;100523.66;;;9.64;39.22
56176;BME280;63065;51.082;17.016;2023-04-02T13:09:33;100524.73;;;9.73;38.78
56176;BME280;63065;51.082;17.016;2023-04-02T13:11:56;100527.37;;;9.82;38.71
56176;BME280;63065;51.082;17.016;2023-04-02T13:14:23;100531.09;;;9.68;39.06
56176;BME280;63065;51.082;17.016;2023-04-02T13:16:47;100529.55;;;9.71;38.65
56176;BME280;63065;51.082;17.016;2023-04-02T13:21:38;100535.92;;;9.66;38.94
56176;BME280;63065;51.082;17.016;2023-04-02T13:24:03;100538.98;;;9.60;39.70